sensor_id;sensor_type;location;lat;lon;timestamp;P1;durP1;ratioP1;P2;durP2;ratioP2
21591;SDS011;10958;50.892;3.992;2023-04-06T00:00:18;24.70;;;12.60;;
21591;SDS011;10958;50.892;3.992;2023-04-06T00:02:44;20.10;;;11.75;;
21591;SDS011;10958;50.892;3.992;2023-04-06T00:05:10;23.17;;;12.15;;
21591;SDS011;10958;50.892;3.992;2023-04-06T00:07:35;26.42;;;12.13;;
21591;SDS011;10958;50.892;3.992;2023-04-06T00:10:01;21.80;;;11.35;;
21591;SDS011;10958;50.892;3.992;2023-04-06T00:12:28;23.08;;;12.38;;
21591;SDS011;10958;50.892;3.992;2023-04-06T00:14:54;21.95;;;12.38;;
21591;SDS011;10958;50.892;3.992;2023-04-06T00:17:20;24.75;;;12.35;;
21591;SDS011;10958;50.892;3.992;2023-04-06T00:19:46;23.65;;;12.13;;
21591;SDS011;10958;50.892;3.992;2023-04-06T00:22:11;22.83;;;12.52;;
21591;SDS011;10958;50.892;3.992;2023-04-06T00:24:37;24.20;;;12.35;;
21591;SDS011;10958;50.892;3.992;2023-04-06T00:27:03;27.02;;;13.15;;
21591;SDS011;10958;50.892;3.992;2023-04-06T00:29:29;22.90;;;12.25;;
21591;SDS011;10958;50.892;3.992;2023-04-06T00:31:57;22.40;;;12.73;;
21591;SDS011;10958;50.892;3.992;2023-04-06T00:34:23;24.65;;;13.20;;
21591;SDS011;10958;50.892;3.992;2023-04-06T00:36:49;23.55;;;12.45;;
21591;SDS011;10958;50.892;3.992;2023-04-06T00:39:15;26.35;;;13.75;;
21591;SDS011;10958;50.892;3.992;2023-04-06T00:41:42;27.95;;;13.43;;
21591;SDS011;10958;50.892;3.992;2023-04-06T00:44:14;21.67;;;12.70;;
21591;SDS011;10958;50.892;3.992;2023-04-06T00:46:40;24.98;;;13.80;;
21591;SDS011;10958;50.892;3.992;2023-04-06T00:49:05;24.30;;;13.55;;
21591;SDS011;10958;50.892;3.992;2023-04-06T00:51:31;22.75;;;12.88;;
21591;SDS011;10958;50.892;3.992;2023-04-06T00:53:57;28.27;;;13.82;;
21591;SDS011;10958;50.892;3.992;2023-04-06T00:56:23;25.23;;;13.05;;
21591;SDS011;10958;50.892;3.992;2023-04-06T00:58:49;24.17;;;13.13;;
21591;SDS011;10958;50.892;3.992;2023-04-06T01:01:18;29.52;;;14.13;;
21591;SDS011;10958;50.892;3.992;2023-04-06T01:03:45;25.45;;;13.25;;
21591;SDS011;10958;50.892;3.992;2023-04-06T01:06:16;25.08;;;13.68;;
21591;SDS011;10958;50.892;3.992;2023-04-06T01:08:42;25.75;;;12.90;;
21591;SDS011;10958;50.892;3.992;2023-04-06T01:11:08;23.75;;;12.93;;
21591;SDS011;10958;50.892;3.992;2023-04-06T01:13:36;23.48;;;12.55;;
21591;SDS011;10958;50.892;3.992;2023-04-06T01:16:02;23.75;;;13.13;;
21591;SDS011;10958;50.892;3.992;2023-04-06T01:18:28;25.70;;;13.02;;
21591;SDS011;10958;50.892;3.992;2023-04-06T01:20:55;22.77;;;12.43;;
21591;SDS011;10958;50.892;3.992;2023-04-06T01:23:21;26.30;;;13.80;;
21591;SDS011;10958;50.892;3.992;2023-04-06T01:25:47;27.38;;;12.98;;
21591;SDS011;10958;50.892;3.992;2023-04-06T01:28:13;24.25;;;13.13;;
21591;SDS011;10958;50.892;3.992;2023-04-06T01:30:41;26.58;;;13.50;;
21591;SDS011;10958;50.892;3.992;2023-04-06T01:33:07;25.95;;;14.50;;
21591;SDS011;10958;50.892;3.992;2023-04-06T01:35:33;26.20;;;13.23;;
21591;SDS011;10958;50.892;3.992;2023-04-06T01:37:59;23.98;;;13.25;;
21591;SDS011;10958;50.892;3.992;2023-04-06T01:40:25;26.08;;;13.15;;
21591;SDS011;10958;50.892;3.992;2023-04-06T01:42:51;23.80;;;13.75;;
21591;SDS011;10958;50.892;3.992;2023-04-06T01:45:17;24.38;;;13.70;;
21591;SDS011;10958;50.892;3.992;2023-04-06T01:47:42;26.38;;;13.15;;
21591;SDS011;10958;50.892;3.992;2023-04-06T01:50:08;24.25;;;12.85;;
21591;SDS011;10958;50.892;3.992;2023-04-06T01:52:34;24.77;;;13.57;;
21591;SDS011;10958;50.892;3.992;2023-04-06T01:55:00;28.13;;;13.68;;
21591;SDS011;10958;50.892;3.992;2023-04-06T01:57:26;23.13;;;13.50;;
21591;SDS011;10958;50.892;3.992;2023-04-06T01:59:51;32.20;;;13.93;;
21591;SDS011;10958;50.892;3.992;2023-04-06T02:02:18;29.15;;;13.82;;
21591;SDS011;10958;50.892;3.992;2023-04-06T02:04:44;23.42;;;13.75;;
21591;SDS011;10958;50.892;3.992;2023-04-06T02:07:09;25.88;;;13.50;;
21591;SDS011;10958;50.892;3.992;2023-04-06T02:09:35;24.83;;;14.00;;
21591;SDS011;10958;50.892;3.992;2023-04-06T02:12:01;24.20;;;13.73;;
21591;SDS011;10958;50.892;3.992;2023-04-06T02:14:29;23.33;;;13.82;;
21591;SDS011;10958;50.892;3.992;2023-04-06T02:16:57;26.15;;;13.30;;
21591;SDS011;10958;50.892;3.992;2023-04-06T02:19:23;22.65;;;14.00;;
21591;SDS011;10958;50.892;3.992;2023-04-06T02:21:49;25.08;;;13.68;;
21591;SDS011;10958;50.892;3.992;2023-04-06T02:24:14;21.38;;;13.18;;
21591;SDS011;10958;50.892;3.992;2023-04-06T02:26:41;25.30;;;14.25;;
21591;SDS011;10958;50.892;3.992;2023-04-06T02:29:06;24.25;;;13.77;;
21591;SDS011;10958;50.892;3.992;2023-04-06T02:31:32;24.05;;;14.10;;
21591;SDS011;10958;50.892;3.992;2023-04-06T02:33:58;26.38;;;13.43;;
21591;SDS011;10958;50.892;3.992;2023-04-06T02:36:24;25.67;;;13.75;;
21591;SDS011;10958;50.892;3.992;2023-04-06T02:38:51;24.38;;;13.63;;
21591;SDS011;10958;50.892;3.992;2023-04-06T02:41:19;20.92;;;13.68;;
21591;SDS011;10958;50.892;3.992;2023-04-06T02:43:45;24.38;;;14.35;;
21591;SDS011;10958;50.892;3.992;2023-04-06T02:46:10;26.48;;;14.40;;
21591;SDS011;10958;50.892;3.992;2023-04-06T02:48:38;24.88;;;13.98;;
21591;SDS011;10958;50.892;3.992;2023-04-06T02:51:04;26.90;;;15.05;;
21591;SDS011;10958;50.892;3.992;2023-04-06T02:53:30;24.17;;;13.95;;
21591;SDS011;10958;50.892;3.992;2023-04-06T02:55:55;26.58;;;14.32;;
21591;SDS011;10958;50.892;3.992;2023-04-06T02:58:22;23.92;;;14.60;;
21591;SDS011;10958;50.892;3.992;2023-04-06T03:00:47;26.48;;;14.60;;
21591;SDS011;10958;50.892;3.992;2023-04-06T03:03:13;26.75;;;14.55;;
21591;SDS011;10958;50.892;3.992;2023-04-06T03:05:39;28.55;;;14.43;;
21591;SDS011;10958;50.892;3.992;2023-04-06T03:08:04;26.23;;;14.80;;
21591;SDS011;10958;50.892;3.992;2023-04-06T03:10:33;25.63;;;15.13;;
21591;SDS011;10958;50.892;3.992;2023-04-06T03:12:59;23.60;;;13.75;;
21591;SDS011;10958;50.892;3.992;2023-04-06T03:15:24;23.27;;;14.10;;
21591;SDS011;10958;50.892;3.992;2023-04-06T03:17:51;27.38;;;14.18;;
21591;SDS011;10958;50.892;3.992;2023-04-06T03:20:16;26.23;;;14.15;;
21591;SDS011;10958;50.892;3.992;2023-04-06T03:22:45;17.33;;;10.63;;
21591;SDS011;10958;50.892;3.992;2023-04-06T03:25:10;22.35;;;14.55;;
21591;SDS011;10958;50.892;3.992;2023-04-06T03:27:39;24.08;;;15.15;;
21591;SDS011;10958;50.892;3.992;2023-04-06T03:30:05;24.90;;;14.80;;
21591;SDS011;10958;50.892;3.992;2023-04-06T03:32:31;29.45;;;15.65;;
21591;SDS011;10958;50.892;3.992;2023-04-06T03:34:57;28.88;;;15.10;;
21591;SDS011;10958;50.892;3.992;2023-04-06T03:37:23;30.48;;;15.05;;
21591;SDS011;10958;50.892;3.992;2023-04-06T03:39:48;24.60;;;14.40;;
21591;SDS011;10958;50.892;3.992;2023-04-06T03:42:14;25.17;;;14.85;;
21591;SDS011;10958;50.892;3.992;2023-04-06T03:44:40;25.52;;;15.20;;
21591;SDS011;10958;50.892;3.992;2023-04-06T03:47:08;24.55;;;13.98;;
21591;SDS011;10958;50.892;3.992;2023-04-06T03:49:34;25.88;;;15.88;;
21591;SDS011;10958;50.892;3.992;2023-04-06T03:52:02;25.23;;;15.82;;
21591;SDS011;10958;50.892;3.992;2023-04-06T03:54:31;27.23;;;15.57;;
21591;SDS011;10958;50.892;3.992;2023-04-06T03:56:56;24.65;;;15.52;;
21591;SDS011;10958;50.892;3.992;2023-04-06T03:59:22;29.50;;;15.68;;
21591;SDS011;10958;50.892;3.992;2023-04-06T04:01:48;24.92;;;15.50;;
21591;SDS011;10958;50.892;3.992;2023-04-06T04:04:14;25.35;;;15.38;;
21591;SDS011;10958;50.892;3.992;2023-04-06T04:06:40;25.58;;;15.65;;
21591;SDS011;10958;50.892;3.992;2023-04-06T04:09:06;29.17;;;16.15;;
21591;SDS011;10958;50.892;3.992;2023-04-06T04:11:34;27.88;;;16.73;;
21591;SDS011;10958;50.892;3.992;2023-04-06T04:14:00;25.90;;;15.23;;
21591;SDS011;10958;50.892;3.992;2023-04-06T04:16:26;28.17;;;16.80;;
21591;SDS011;10958;50.892;3.992;2023-04-06T04:18:51;28.63;;;16.75;;
21591;SDS011;10958;50.892;3.992;2023-04-06T04:21:17;33.72;;;16.80;;
21591;SDS011;10958;50.892;3.992;2023-04-06T04:23:43;24.15;;;15.98;;
21591;SDS011;10958;50.892;3.992;2023-04-06T04:26:11;29.63;;;16.50;;
21591;SDS011;10958;50.892;3.992;2023-04-06T04:28:37;28.00;;;16.25;;
21591;SDS011;10958;50.892;3.992;2023-04-06T04:31:03;28.77;;;16.42;;
21591;SDS011;10958;50.892;3.992;2023-04-06T04:33:29;28.30;;;16.58;;
21591;SDS011;10958;50.892;3.992;2023-04-06T04:35:55;28.65;;;16.58;;
21591;SDS011;10958;50.892;3.992;2023-04-06T04:38:20;26.30;;;15.68;;
21591;SDS011;10958;50.892;3.992;2023-04-06T04:40:46;25.55;;;15.48;;
21591;SDS011;10958;50.892;3.992;2023-04-06T04:43:12;26.52;;;17.13;;
21591;SDS011;10958;50.892;3.992;2023-04-06T04:45:38;29.30;;;17.33;;
21591;SDS011;10958;50.892;3.992;2023-04-06T04:48:06;25.25;;;15.68;;
21591;SDS011;10958;50.892;3.992;2023-04-06T04:50:33;28.83;;;16.42;;
21591;SDS011;10958;50.892;3.992;2023-04-06T04:52:59;32.00;;;17.02;;
21591;SDS011;10958;50.892;3.992;2023-04-06T04:55:30;26.02;;;16.58;;
21591;SDS011;10958;50.892;3.992;2023-04-06T04:57:55;27.85;;;16.52;;
21591;SDS011;10958;50.892;3.992;2023-04-06T05:00:23;35.30;;;17.50;;
21591;SDS011;10958;50.892;3.992;2023-04-06T05:02:51;25.67;;;16.52;;
21591;SDS011;10958;50.892;3.992;2023-04-06T05:05:20;26.85;;;16.38;;
21591;SDS011;10958;50.892;3.992;2023-04-06T05:07:46;29.40;;;16.67;;
21591;SDS011;10958;50.892;3.992;2023-04-06T05:10:12;35.50;;;16.67;;
21591;SDS011;10958;50.892;3.992;2023-04-06T05:12:38;32.08;;;17.13;;
21591;SDS011;10958;50.892;3.992;2023-04-06T05:15:05;28.83;;;16.75;;
21591;SDS011;10958;50.892;3.992;2023-04-06T05:17:32;30.73;;;15.95;;
21591;SDS011;10958;50.892;3.992;2023-04-06T05:19:58;28.42;;;17.80;;
21591;SDS011;10958;50.892;3.992;2023-04-06T05:22:24;30.65;;;17.42;;
21591;SDS011;10958;50.892;3.992;2023-04-06T05:24:52;28.23;;;16.98;;
21591;SDS011;10958;50.892;3.992;2023-04-06T05:27:18;27.73;;;16.73;;
21591;SDS011;10958;50.892;3.992;2023-04-06T05:29:46;30.23;;;17.25;;
21591;SDS011;10958;50.892;3.992;2023-04-06T05:32:14;28.73;;;16.20;;
21591;SDS011;10958;50.892;3.992;2023-04-06T05:34:42;29.13;;;16.67;;
21591;SDS011;10958;50.892;3.992;2023-04-06T05:37:08;28.50;;;15.88;;
21591;SDS011;10958;50.892;3.992;2023-04-06T05:39:34;28.98;;;16.95;;
21591;SDS011;10958;50.892;3.992;2023-04-06T05:42:02;30.40;;;16.95;;
21591;SDS011;10958;50.892;3.992;2023-04-06T05:44:31;28.58;;;16.45;;
21591;SDS011;10958;50.892;3.992;2023-04-06T05:46:58;25.98;;;16.75;;
21591;SDS011;10958;50.892;3.992;2023-04-06T05:49:24;26.02;;;16.60;;
21591;SDS011;10958;50.892;3.992;2023-04-06T05:51:50;27.85;;;16.58;;
21591;SDS011;10958;50.892;3.992;2023-04-06T05:54:16;30.75;;;17.10;;
21591;SDS011;10958;50.892;3.992;2023-04-06T05:56:45;30.60;;;16.88;;
21591;SDS011;10958;50.892;3.992;2023-04-06T05:59:10;28.58;;;17.75;;
21591;SDS011;10958;50.892;3.992;2023-04-06T06:01:37;30.48;;;17.30;;
21591;SDS011;10958;50.892;3.992;2023-04-06T06:04:02;31.38;;;16.75;;
21591;SDS011;10958;50.892;3.992;2023-04-06T06:06:29;29.75;;;17.63;;
21591;SDS011;10958;50.892;3.992;2023-04-06T06:08:55;27.48;;;17.27;;
21591;SDS011;10958;50.892;3.992;2023-04-06T06:11:24;29.67;;;17.80;;
21591;SDS011;10958;50.892;3.992;2023-04-06T06:13:50;30.92;;;17.33;;
21591;SDS011;10958;50.892;3.992;2023-04-06T06:16:16;32.67;;;18.73;;
21591;SDS011;10958;50.892;3.992;2023-04-06T06:18:42;35.42;;;18.02;;
21591;SDS011;10958;50.892;3.992;2023-04-06T06:21:09;26.90;;;17.17;;
21591;SDS011;10958;50.892;3.992;2023-04-06T06:23:36;30.65;;;19.13;;
21591;SDS011;10958;50.892;3.992;2023-04-06T06:26:02;28.95;;;18.52;;
21591;SDS011;10958;50.892;3.992;2023-04-06T06:28:29;34.55;;;19.20;;
21591;SDS011;10958;50.892;3.992;2023-04-06T06:30:55;31.42;;;19.33;;
21591;SDS011;10958;50.892;3.992;2023-04-06T06:33:21;40.30;;;19.58;;
21591;SDS011;10958;50.892;3.992;2023-04-06T06:35:47;33.83;;;19.33;;
21591;SDS011;10958;50.892;3.992;2023-04-06T06:38:13;34.33;;;19.10;;
21591;SDS011;10958;50.892;3.992;2023-04-06T06:40:40;31.92;;;18.65;;
21591;SDS011;10958;50.892;3.992;2023-04-06T06:43:06;32.72;;;18.67;;
21591;SDS011;10958;50.892;3.992;2023-04-06T06:45:32;32.47;;;18.55;;
21591;SDS011;10958;50.892;3.992;2023-04-06T06:47:58;29.92;;;18.10;;
21591;SDS011;10958;50.892;3.992;2023-04-06T06:50:24;31.42;;;19.15;;
21591;SDS011;10958;50.892;3.992;2023-04-06T06:52:50;29.13;;;17.77;;
21591;SDS011;10958;50.892;3.992;2023-04-06T06:55:15;32.95;;;18.27;;
21591;SDS011;10958;50.892;3.992;2023-04-06T06:57:43;30.98;;;17.67;;
21591;SDS011;10958;50.892;3.992;2023-04-06T07:00:11;35.58;;;17.48;;
21591;SDS011;10958;50.892;3.992;2023-04-06T07:02:38;30.30;;;18.20;;
21591;SDS011;10958;50.892;3.992;2023-04-06T07:05:05;29.33;;;17.20;;
21591;SDS011;10958;50.892;3.992;2023-04-06T07:07:34;26.85;;;17.08;;
21591;SDS011;10958;50.892;3.992;2023-04-06T07:10:02;27.55;;;17.42;;
21591;SDS011;10958;50.892;3.992;2023-04-06T07:12:29;28.23;;;16.88;;
21591;SDS011;10958;50.892;3.992;2023-04-06T07:14:55;29.15;;;17.35;;
21591;SDS011;10958;50.892;3.992;2023-04-06T07:17:20;27.95;;;16.77;;
21591;SDS011;10958;50.892;3.992;2023-04-06T07:19:46;28.20;;;16.15;;
21591;SDS011;10958;50.892;3.992;2023-04-06T07:22:12;24.08;;;15.77;;
21591;SDS011;10958;50.892;3.992;2023-04-06T07:24:40;25.65;;;16.05;;
21591;SDS011;10958;50.892;3.992;2023-04-06T07:27:06;23.50;;;15.03;;
21591;SDS011;10958;50.892;3.992;2023-04-06T07:29:32;24.20;;;14.88;;
21591;SDS011;10958;50.892;3.992;2023-04-06T07:31:57;22.10;;;14.48;;
21591;SDS011;10958;50.892;3.992;2023-04-06T07:34:24;23.73;;;13.70;;
21591;SDS011;10958;50.892;3.992;2023-04-06T07:36:49;22.55;;;12.70;;
21591;SDS011;10958;50.892;3.992;2023-04-06T07:39:17;18.00;;;12.25;;
21591;SDS011;10958;50.892;3.992;2023-04-06T07:41:43;20.85;;;12.50;;
21591;SDS011;10958;50.892;3.992;2023-04-06T07:44:09;17.52;;;10.80;;
21591;SDS011;10958;50.892;3.992;2023-04-06T07:46:40;18.15;;;10.18;;
21591;SDS011;10958;50.892;3.992;2023-04-06T07:49:05;16.42;;;10.00;;
21591;SDS011;10958;50.892;3.992;2023-04-06T07:51:35;14.90;;;9.35;;
21591;SDS011;10958;50.892;3.992;2023-04-06T07:54:04;14.93;;;9.43;;
21591;SDS011;10958;50.892;3.992;2023-04-06T07:56:32;19.57;;;9.50;;
21591;SDS011;10958;50.892;3.992;2023-04-06T07:58:59;11.32;;;7.93;;
21591;SDS011;10958;50.892;3.992;2023-04-06T08:01:25;12.55;;;8.48;;
21591;SDS011;10958;50.892;3.992;2023-04-06T08:03:52;16.63;;;8.68;;
21591;SDS011;10958;50.892;3.992;2023-04-06T08:06:17;14.15;;;7.97;;
21591;SDS011;10958;50.892;3.992;2023-04-06T08:08:43;13.32;;;7.80;;
21591;SDS011;10958;50.892;3.992;2023-04-06T08:11:09;11.35;;;8.05;;
21591;SDS011;10958;50.892;3.992;2023-04-06T08:13:35;14.93;;;8.98;;
21591;SDS011;10958;50.892;3.992;2023-04-06T08:16:01;15.20;;;9.10;;
21591;SDS011;10958;50.892;3.992;2023-04-06T08:18:29;14.75;;;9.00;;
21591;SDS011;10958;50.892;3.992;2023-04-06T08:20:55;12.38;;;8.32;;
21591;SDS011;10958;50.892;3.992;2023-04-06T08:23:21;14.00;;;8.57;;
21591;SDS011;10958;50.892;3.992;2023-04-06T08:25:50;15.75;;;9.52;;
21591;SDS011;10958;50.892;3.992;2023-04-06T08:28:17;15.70;;;8.85;;
21591;SDS011;10958;50.892;3.992;2023-04-06T08:30:43;14.35;;;8.63;;
21591;SDS011;10958;50.892;3.992;2023-04-06T08:33:09;15.52;;;8.75;;
21591;SDS011;10958;50.892;3.992;2023-04-06T08:35:35;17.55;;;9.05;;
21591;SDS011;10958;50.892;3.992;2023-04-06T08:38:01;12.15;;;7.95;;
21591;SDS011;10958;50.892;3.992;2023-04-06T08:40:27;15.20;;;8.60;;
21591;SDS011;10958;50.892;3.992;2023-04-06T08:42:55;14.55;;;8.35;;
21591;SDS011;10958;50.892;3.992;2023-04-06T08:45:21;10.77;;;5.83;;
21591;SDS011;10958;50.892;3.992;2023-04-06T08:47:49;13.57;;;8.38;;
21591;SDS011;10958;50.892;3.992;2023-04-06T08:50:16;13.27;;;7.65;;
21591;SDS011;10958;50.892;3.992;2023-04-06T08:52:43;17.05;;;7.97;;
21591;SDS011;10958;50.892;3.992;2023-04-06T08:55:11;13.43;;;8.60;;
21591;SDS011;10958;50.892;3.992;2023-04-06T08:57:37;13.57;;;8.48;;
21591;SDS011;10958;50.892;3.992;2023-04-06T09:00:04;16.73;;;9.27;;
21591;SDS011;10958;50.892;3.992;2023-04-06T09:02:32;14.80;;;9.13;;
21591;SDS011;10958;50.892;3.992;2023-04-06T09:05:00;14.33;;;8.77;;
21591;SDS011;10958;50.892;3.992;2023-04-06T09:07:26;14.80;;;9.15;;
21591;SDS011;10958;50.892;3.992;2023-04-06T09:09:54;16.55;;;9.25;;
21591;SDS011;10958;50.892;3.992;2023-04-06T09:12:26;14.73;;;8.83;;
21591;SDS011;10958;50.892;3.992;2023-04-06T09:14:53;13.68;;;8.65;;
21591;SDS011;10958;50.892;3.992;2023-04-06T09:17:20;15.32;;;8.20;;
21591;SDS011;10958;50.892;3.992;2023-04-06T09:19:50;14.75;;;8.45;;
21591;SDS011;10958;50.892;3.992;2023-04-06T09:22:17;14.52;;;7.93;;
21591;SDS011;10958;50.892;3.992;2023-04-06T09:24:45;13.40;;;8.48;;
21591;SDS011;10958;50.892;3.992;2023-04-06T09:27:15;13.90;;;8.27;;
21591;SDS011;10958;50.892;3.992;2023-04-06T09:29:44;14.75;;;8.88;;
21591;SDS011;10958;50.892;3.992;2023-04-06T09:32:11;12.02;;;8.35;;
21591;SDS011;10958;50.892;3.992;2023-04-06T09:34:41;15.70;;;9.35;;
21591;SDS011;10958;50.892;3.992;2023-04-06T09:39:40;14.07;;;8.93;;
21591;SDS011;10958;50.892;3.992;2023-04-06T09:42:08;13.93;;;8.90;;
21591;SDS011;10958;50.892;3.992;2023-04-06T09:44:36;13.32;;;8.45;;
21591;SDS011;10958;50.892;3.992;2023-04-06T09:47:02;15.52;;;8.93;;
21591;SDS011;10958;50.892;3.992;2023-04-06T09:49:33;13.48;;;8.60;;
21591;SDS011;10958;50.892;3.992;2023-04-06T09:52:02;16.00;;;8.38;;
21591;SDS011;10958;50.892;3.992;2023-04-06T09:54:30;15.43;;;9.13;;
21591;SDS011;10958;50.892;3.992;2023-04-06T09:57:04;13.27;;;8.52;;
21591;SDS011;10958;50.892;3.992;2023-04-06T10:03:52;15.05;;;8.63;;
21591;SDS011;10958;50.892;3.992;2023-04-06T10:06:45;13.60;;;8.90;;
21591;SDS011;10958;50.892;3.992;2023-04-06T10:09:16;14.52;;;8.20;;
21591;SDS011;10958;50.892;3.992;2023-04-06T10:11:43;14.45;;;10.10;;
21591;SDS011;10958;50.892;3.992;2023-04-06T10:14:11;16.73;;;9.70;;
21591;SDS011;10958;50.892;3.992;2023-04-06T10:16:37;15.30;;;8.73;;
21591;SDS011;10958;50.892;3.992;2023-04-06T10:19:10;15.32;;;9.30;;
21591;SDS011;10958;50.892;3.992;2023-04-06T10:21:40;13.57;;;9.07;;
21591;SDS011;10958;50.892;3.992;2023-04-06T10:24:11;14.70;;;10.13;;
21591;SDS011;10958;50.892;3.992;2023-04-06T10:26:42;17.55;;;9.60;;
21591;SDS011;10958;50.892;3.992;2023-04-06T10:29:07;14.15;;;9.27;;
21591;SDS011;10958;50.892;3.992;2023-04-06T10:31:39;13.05;;;9.07;;
21591;SDS011;10958;50.892;3.992;2023-04-06T10:34:10;14.15;;;8.55;;
21591;SDS011;10958;50.892;3.992;2023-04-06T10:36:36;17.38;;;9.52;;
21591;SDS011;10958;50.892;3.992;2023-04-06T10:39:03;15.80;;;9.45;;
21591;SDS011;10958;50.892;3.992;2023-04-06T10:41:31;13.88;;;9.00;;
21591;SDS011;10958;50.892;3.992;2023-04-06T10:44:04;17.50;;;11.13;;
21591;SDS011;10958;50.892;3.992;2023-04-06T10:46:30;18.50;;;11.00;;
21591;SDS011;10958;50.892;3.992;2023-04-06T10:49:08;15.65;;;10.70;;
21591;SDS011;10958;50.892;3.992;2023-04-06T10:51:37;18.25;;;10.77;;
21591;SDS011;10958;50.892;3.992;2023-04-06T10:54:03;15.88;;;9.98;;
21591;SDS011;10958;50.892;3.992;2023-04-06T10:56:30;16.27;;;10.75;;
21591;SDS011;10958;50.892;3.992;2023-04-06T10:58:59;16.98;;;10.38;;
21591;SDS011;10958;50.892;3.992;2023-04-06T11:01:25;18.02;;;11.40;;
21591;SDS011;10958;50.892;3.992;2023-04-06T11:03:54;17.42;;;11.63;;
21591;SDS011;10958;50.892;3.992;2023-04-06T11:06:27;17.85;;;11.00;;
21591;SDS011;10958;50.892;3.992;2023-04-06T11:08:54;18.65;;;11.68;;
21591;SDS011;10958;50.892;3.992;2023-04-06T11:11:21;14.70;;;10.55;;
21591;SDS011;10958;50.892;3.992;2023-04-06T11:13:58;19.95;;;12.05;;
21591;SDS011;10958;50.892;3.992;2023-04-06T11:16:26;17.58;;;10.63;;
21591;SDS011;10958;50.892;3.992;2023-04-06T11:18:57;15.52;;;10.52;;
21591;SDS011;10958;50.892;3.992;2023-04-06T11:24:10;18.15;;;11.32;;
21591;SDS011;10958;50.892;3.992;2023-04-06T11:26:38;16.60;;;10.35;;
21591;SDS011;10958;50.892;3.992;2023-04-06T11:29:05;16.60;;;10.93;;
21591;SDS011;10958;50.892;3.992;2023-04-06T11:31:40;16.90;;;11.02;;
21591;SDS011;10958;50.892;3.992;2023-04-06T11:34:15;15.70;;;10.90;;
21591;SDS011;10958;50.892;3.992;2023-04-06T11:36:45;16.02;;;10.95;;
21591;SDS011;10958;50.892;3.992;2023-04-06T11:39:18;17.83;;;10.30;;
21591;SDS011;10958;50.892;3.992;2023-04-06T11:41:49;13.95;;;9.13;;
21591;SDS011;10958;50.892;3.992;2023-04-06T11:44:39;15.55;;;9.90;;
21591;SDS011;10958;50.892;3.992;2023-04-06T11:47:11;13.95;;;9.23;;
21591;SDS011;10958;50.892;3.992;2023-04-06T11:49:39;14.07;;;8.93;;
21591;SDS011;10958;50.892;3.992;2023-04-06T11:52:19;13.60;;;9.52;;
21591;SDS011;10958;50.892;3.992;2023-04-06T11:54:46;13.32;;;8.82;;
21591;SDS011;10958;50.892;3.992;2023-04-06T11:57:13;15.57;;;10.77;;
21591;SDS011;10958;50.892;3.992;2023-04-06T11:59:39;13.93;;;9.20;;
21591;SDS011;10958;50.892;3.992;2023-04-06T12:02:05;14.63;;;9.23;;
21591;SDS011;10958;50.892;3.992;2023-04-06T12:04:31;13.25;;;9.75;;
21591;SDS011;10958;50.892;3.992;2023-04-06T12:06:57;12.88;;;9.20;;
21591;SDS011;10958;50.892;3.992;2023-04-06T12:09:23;13.18;;;9.07;;
21591;SDS011;10958;50.892;3.992;2023-04-06T12:11:49;12.38;;;9.05;;
21591;SDS011;10958;50.892;3.992;2023-04-06T12:14:15;12.45;;;8.77;;
21591;SDS011;10958;50.892;3.992;2023-04-06T12:16:41;15.55;;;9.52;;
21591;SDS011;10958;50.892;3.992;2023-04-06T12:19:07;13.82;;;9.48;;
21591;SDS011;10958;50.892;3.992;2023-04-06T12:21:36;13.88;;;9.13;;
21591;SDS011;10958;50.892;3.992;2023-04-06T12:24:02;15.98;;;9.82;;
21591;SDS011;10958;50.892;3.992;2023-04-06T12:26:29;14.38;;;9.07;;
21591;SDS011;10958;50.892;3.992;2023-04-06T12:28:55;14.35;;;9.63;;
21591;SDS011;10958;50.892;3.992;2023-04-06T12:31:21;16.15;;;9.82;;
21591;SDS011;10958;50.892;3.992;2023-04-06T12:33:48;16.08;;;9.80;;
21591;SDS011;10958;50.892;3.992;2023-04-06T12:36:16;13.27;;;9.55;;
21591;SDS011;10958;50.892;3.992;2023-04-06T12:38:49;12.27;;;9.00;;
21591;SDS011;10958;50.892;3.992;2023-04-06T12:41:18;13.82;;;9.10;;
21591;SDS011;10958;50.892;3.992;2023-04-06T12:43:48;13.60;;;9.48;;
21591;SDS011;10958;50.892;3.992;2023-04-06T12:46:14;14.43;;;10.15;;
21591;SDS011;10958;50.892;3.992;2023-04-06T12:48:40;16.85;;;9.45;;
21591;SDS011;10958;50.892;3.992;2023-04-06T12:51:06;15.50;;;10.77;;
21591;SDS011;10958;50.892;3.992;2023-04-06T12:53:32;16.95;;;11.40;;
21591;SDS011;10958;50.892;3.992;2023-04-06T12:56:02;20.92;;;11.05;;
21591;SDS011;10958;50.892;3.992;2023-04-06T12:58:36;15.75;;;10.13;;
21591;SDS011;10958;50.892;3.992;2023-04-06T13:01:05;15.90;;;10.85;;
21591;SDS011;10958;50.892;3.992;2023-04-06T13:03:34;17.95;;;10.63;;
21591;SDS011;10958;50.892;3.992;2023-04-06T13:06:00;16.25;;;10.63;;
21591;SDS011;10958;50.892;3.992;2023-04-06T13:08:27;15.18;;;10.73;;
21591;SDS011;10958;50.892;3.992;2023-04-06T13:10:52;15.43;;;10.77;;
21591;SDS011;10958;50.892;3.992;2023-04-06T13:13:22;15.23;;;10.43;;
21591;SDS011;10958;50.892;3.992;2023-04-06T13:15:49;17.05;;;11.60;;
21591;SDS011;10958;50.892;3.992;2023-04-06T13:18:15;20.55;;;12.05;;
21591;SDS011;10958;50.892;3.992;2023-04-06T13:20:41;15.07;;;11.18;;
21591;SDS011;10958;50.892;3.992;2023-04-06T13:23:09;16.60;;;11.13;;
21591;SDS011;10958;50.892;3.992;2023-04-06T13:25:37;15.32;;;10.60;;
21591;SDS011;10958;50.892;3.992;2023-04-06T13:28:05;16.33;;;11.25;;
21591;SDS011;10958;50.892;3.992;2023-04-06T13:30:30;15.82;;;11.43;;
21591;SDS011;10958;50.892;3.992;2023-04-06T13:32:56;18.15;;;11.25;;
21591;SDS011;10958;50.892;3.992;2023-04-06T13:35:22;13.55;;;10.65;;
21591;SDS011;10958;50.892;3.992;2023-04-06T13:37:48;15.35;;;11.10;;
21591;SDS011;10958;50.892;3.992;2023-04-06T13:40:13;16.67;;;11.35;;
21591;SDS011;10958;50.892;3.992;2023-04-06T13:42:39;16.98;;;11.38;;
21591;SDS011;10958;50.892;3.992;2023-04-06T13:45:06;17.17;;;11.52;;
21591;SDS011;10958;50.892;3.992;2023-04-06T13:47:33;17.98;;;11.93;;
21591;SDS011;10958;50.892;3.992;2023-04-06T13:49:59;18.50;;;11.30;;
21591;SDS011;10958;50.892;3.992;2023-04-06T13:52:25;17.55;;;11.48;;
21591;SDS011;10958;50.892;3.992;2023-04-06T13:54:50;16.30;;;12.45;;
21591;SDS011;10958;50.892;3.992;2023-04-06T13:57:17;19.70;;;11.93;;
21591;SDS011;10958;50.892;3.992;2023-04-06T13:59:42;20.67;;;13.02;;
21591;SDS011;10958;50.892;3.992;2023-04-06T14:02:08;22.25;;;14.13;;
21591;SDS011;10958;50.892;3.992;2023-04-06T14:04:37;21.58;;;12.68;;
21591;SDS011;10958;50.892;3.992;2023-04-06T14:07:03;19.65;;;13.48;;
21591;SDS011;10958;50.892;3.992;2023-04-06T14:09:32;24.13;;;13.52;;
21591;SDS011;10958;50.892;3.992;2023-04-06T14:11:57;18.20;;;12.95;;
21591;SDS011;10958;50.892;3.992;2023-04-06T14:14:23;21.13;;;12.90;;
21591;SDS011;10958;50.892;3.992;2023-04-06T14:16:49;19.75;;;13.45;;
21591;SDS011;10958;50.892;3.992;2023-04-06T14:19:16;20.15;;;13.35;;
21591;SDS011;10958;50.892;3.992;2023-04-06T14:21:43;21.33;;;13.90;;
21591;SDS011;10958;50.892;3.992;2023-04-06T14:24:09;21.00;;;13.50;;
21591;SDS011;10958;50.892;3.992;2023-04-06T14:26:36;18.90;;;12.70;;
21591;SDS011;10958;50.892;3.992;2023-04-06T14:29:04;22.63;;;14.10;;
21591;SDS011;10958;50.892;3.992;2023-04-06T14:31:32;24.33;;;15.07;;
21591;SDS011;10958;50.892;3.992;2023-04-06T14:34:00;22.00;;;13.30;;